createdAt,value
2023-12-29T00:01:32.475Z,7.85
2023-12-29T00:03:59.593Z,8.02
2023-12-29T00:06:26.434Z,7.20
2023-12-29T00:08:53.281Z,8.15
2023-12-29T00:11:23.859Z,8.45
2023-12-29T00:13:50.666Z,7.20
2023-12-29T00:16:17.579Z,6.80
2023-12-29T00:18:44.739Z,6.93
2023-12-29T00:21:11.805Z,8.25
2023-12-29T00:23:38.928Z,8.38
2023-12-29T00:26:05.789Z,7.20
2023-12-29T00:28:32.539Z,7.13
2023-12-29T00:31:01.953Z,7.40
2023-12-29T00:33:32.967Z,9.32
2023-12-29T00:36:00.073Z,7.15
2023-12-29T00:38:30.514Z,8.23
2023-12-29T00:40:57.385Z,9.32
2023-12-29T00:43:24.387Z,8.88
2023-12-29T00:45:51.573Z,9.48
2023-12-29T00:48:18.855Z,8.73
2023-12-29T00:50:46.967Z,11.07
2023-12-29T00:53:14.229Z,8.82
2023-12-29T00:55:41.238Z,8.45
2023-12-29T00:58:08.021Z,8.32
2023-12-29T01:00:34.906Z,9.70
2023-12-29T01:03:01.798Z,10.35
2023-12-29T01:05:29.028Z,10.05
2023-12-29T01:07:56.728Z,8.35
2023-12-29T01:10:23.524Z,9.13
2023-12-29T01:12:50.411Z,10.20
2023-12-29T01:15:17.293Z,9.90
2023-12-29T01:17:44.549Z,10.68
2023-12-29T01:20:12.323Z,9.80
2023-12-29T01:22:39.079Z,12.10
2023-12-29T01:25:07.105Z,11.20
2023-12-29T01:27:35.414Z,10.05
2023-12-29T01:30:02.221Z,10.70
2023-12-29T01:32:29.091Z,10.20
2023-12-29T01:34:55.854Z,9.40
2023-12-29T01:37:22.605Z,10.70
2023-12-29T01:39:49.374Z,12.30
2023-12-29T01:42:16.389Z,9.75
2023-12-29T01:44:44.411Z,8.38
2023-12-29T01:47:17.730Z,10.90
2023-12-29T01:49:49.472Z,10.73
2023-12-29T01:52:18.324Z,8.65
2023-12-29T01:54:48.672Z,9.45
2023-12-29T01:57:15.780Z,7.80
2023-12-29T01:59:43.414Z,10.88
2023-12-29T02:02:10.984Z,6.97
2023-12-29T02:04:38.483Z,5.65
2023-12-29T02:07:05.820Z,6.32
2023-12-29T02:09:35.090Z,7.30
2023-12-29T02:12:02.091Z,6.43
2023-12-29T02:14:29.133Z,6.50
2023-12-29T02:17:12.484Z,5.25
2023-12-29T02:19:45.644Z,7.00
2023-12-29T02:22:14.700Z,4.97
2023-12-29T02:24:46.440Z,5.57
2023-12-29T02:27:29.382Z,5.28
2023-12-29T02:30:17.166Z,4.57
2023-12-29T02:32:47.403Z,5.28
2023-12-29T02:35:25.932Z,5.55
2023-12-29T02:37:55.363Z,4.40
2023-12-29T02:40:22.341Z,4.65
2023-12-29T02:42:50.317Z,4.20
2023-12-29T02:45:18.203Z,3.80
2023-12-29T02:47:46.174Z,7.05
2023-12-29T02:50:13.547Z,3.35
2023-12-29T02:52:40.360Z,3.53
2023-12-29T02:55:07.492Z,3.28
2023-12-29T02:57:34.918Z,3.60
2023-12-29T03:00:02.176Z,4.20
2023-12-29T03:02:29.570Z,2.80
2023-12-29T03:04:56.320Z,3.70
2023-12-29T03:07:23.181Z,3.38
2023-12-29T03:09:49.948Z,3.15
2023-12-29T03:12:17.451Z,5.00
2023-12-29T03:14:45.885Z,5.28
2023-12-29T03:17:13.130Z,5.15
2023-12-29T03:19:39.939Z,4.55
2023-12-29T03:22:06.850Z,4.35
2023-12-29T03:24:34.415Z,4.18
2023-12-29T03:27:01.206Z,5.35
2023-12-29T03:29:27.988Z,5.95
2023-12-29T03:31:55.282Z,4.65
2023-12-29T03:34:22.547Z,4.93
2023-12-29T03:36:49.671Z,3.80
2023-12-29T03:39:16.560Z,3.72
2023-12-29T03:41:43.307Z,6.45
2023-12-29T03:44:10.141Z,5.03
2023-12-29T03:46:37.133Z,6.35
2023-12-29T03:49:04.290Z,5.00
2023-12-29T03:51:31.316Z,4.13
2023-12-29T03:53:59.575Z,4.28
2023-12-29T03:56:26.769Z,5.25
2023-12-29T03:58:53.719Z,4.35
2023-12-29T04:01:21.265Z,5.70
2023-12-29T04:03:48.432Z,5.20
2023-12-29T04:06:15.324Z,4.20
2023-12-29T04:08:42.172Z,5.63
2023-12-29T04:11:09.008Z,4.78
2023-12-29T04:13:36.124Z,4.55
2023-12-29T04:16:02.998Z,4.80
2023-12-29T04:18:30.636Z,4.80
2023-12-29T04:20:57.585Z,5.78
2023-12-29T04:23:24.479Z,4.30
2023-12-29T04:25:51.419Z,4.18
2023-12-29T04:28:18.292Z,5.13
2023-12-29T04:30:45.232Z,6.25
2023-12-29T04:33:12.790Z,3.85
2023-12-29T04:35:39.560Z,4.60
2023-12-29T04:38:07.579Z,3.33
2023-12-29T04:40:35.234Z,4.65
2023-12-29T04:43:01.999Z,3.63
2023-12-29T04:45:30.344Z,3.45
2023-12-29T04:47:57.261Z,4.38
2023-12-29T04:50:24.103Z,6.30
2023-12-29T04:52:51.000Z,4.85
2023-12-29T04:55:18.153Z,3.60
2023-12-29T04:57:45.253Z,3.95
2023-12-29T05:00:13.159Z,4.40
2023-12-29T05:02:40.025Z,3.80
2023-12-29T05:05:07.065Z,4.63
2023-12-29T05:07:34.161Z,3.38
2023-12-29T05:10:01.140Z,4.32
2023-12-29T05:12:28.048Z,4.15
2023-12-29T05:14:55.256Z,3.05
2023-12-29T05:17:22.091Z,3.53
2023-12-29T05:19:49.239Z,4.55
2023-12-29T05:22:19.365Z,2.42
2023-12-29T05:24:46.446Z,3.38
2023-12-29T05:27:13.706Z,3.22
2023-12-29T05:29:40.633Z,3.20
2023-12-29T05:32:07.629Z,3.97
2023-12-29T05:34:34.787Z,3.50
2023-12-29T05:37:01.743Z,4.35
2023-12-29T05:39:28.612Z,3.15
2023-12-29T05:41:55.376Z,4.55
2023-12-29T05:44:22.161Z,6.22
2023-12-29T05:46:49.073Z,3.63
2023-12-29T05:49:16.027Z,3.90
2023-12-29T05:51:44.153Z,2.88
2023-12-29T05:54:11.067Z,4.20
2023-12-29T05:56:37.832Z,2.78
2023-12-29T05:59:04.614Z,4.20
2023-12-29T06:01:31.418Z,3.30
2023-12-29T06:03:58.234Z,2.22
2023-12-29T06:06:24.945Z,2.70
2023-12-29T06:08:51.753Z,2.50
2023-12-29T06:11:18.580Z,3.42
2023-12-29T06:13:45.331Z,3.20
2023-12-29T06:16:18.982Z,3.65
2023-12-29T06:18:46.108Z,2.28
2023-12-29T06:21:13.078Z,2.75
2023-12-29T06:23:40.022Z,3.25
2023-12-29T06:26:06.774Z,2.78
2023-12-29T06:28:34.081Z,3.47
2023-12-29T06:31:00.938Z,3.53
2023-12-29T06:33:27.905Z,2.33
2023-12-29T06:35:54.876Z,2.28
2023-12-29T06:38:21.610Z,1.95
2023-12-29T06:40:48.494Z,3.20
2023-12-29T06:43:15.552Z,3.65
2023-12-29T06:45:42.657Z,2.40
2023-12-29T06:48:10.136Z,2.15
2023-12-29T06:50:37.421Z,2.13
2023-12-29T06:53:04.467Z,1.90
2023-12-29T06:55:31.266Z,1.90
2023-12-29T06:57:58.484Z,2.47
2023-12-29T07:00:26.043Z,4.25
2023-12-29T07:02:53.217Z,7.40
2023-12-29T07:05:20.349Z,5.10
2023-12-29T07:07:47.228Z,5.30
2023-12-29T07:10:14.944Z,6.13
2023-12-29T07:12:42.500Z,6.00
2023-12-29T07:15:09.722Z,7.72
2023-12-29T07:17:36.905Z,5.40
2023-12-29T07:20:04.505Z,7.05
2023-12-29T07:22:32.085Z,8.40
2023-12-29T07:24:59.112Z,8.88
2023-12-29T07:27:26.017Z,7.50
2023-12-29T07:29:52.809Z,8.13
2023-12-29T07:32:19.561Z,7.25
2023-12-29T07:34:46.720Z,9.52
2023-12-29T07:37:13.702Z,9.15
2023-12-29T07:39:40.485Z,9.02
2023-12-29T07:42:07.371Z,8.05
2023-12-29T07:44:34.153Z,8.27
2023-12-29T07:47:01.576Z,9.93
2023-12-29T07:49:28.664Z,10.27
2023-12-29T07:51:56.650Z,10.68
2023-12-29T07:54:23.462Z,10.43
2023-12-29T07:56:51.941Z,11.32
2023-12-29T07:59:18.718Z,14.13
2023-12-29T08:01:46.170Z,10.98
2023-12-29T08:04:15.638Z,9.90
2023-12-29T08:06:42.620Z,11.95
2023-12-29T08:09:10.214Z,13.07
2023-12-29T08:11:36.992Z,12.43
2023-12-29T08:14:03.777Z,13.85
2023-12-29T08:16:30.673Z,13.60
2023-12-29T08:18:58.412Z,12.82
2023-12-29T08:21:25.201Z,13.30
2023-12-29T08:23:52.049Z,12.50
2023-12-29T08:26:18.796Z,11.90
2023-12-29T08:28:46.455Z,11.43
2023-12-29T08:31:13.964Z,15.85
2023-12-29T08:33:40.825Z,13.15
2023-12-29T08:36:07.949Z,11.90
2023-12-29T08:38:34.827Z,11.27
2023-12-29T08:41:01.642Z,10.68
2023-12-29T08:43:28.497Z,11.55
2023-12-29T08:45:55.706Z,9.32
2023-12-29T08:48:23.124Z,12.07
2023-12-29T08:50:50.895Z,9.57
2023-12-29T08:53:18.598Z,8.25
2023-12-29T08:55:45.605Z,8.25
2023-12-29T08:58:13.390Z,8.50
2023-12-29T09:00:40.373Z,7.43
2023-12-29T09:03:07.249Z,7.82
2023-12-29T09:05:34.045Z,7.03
2023-12-29T09:08:01.032Z,7.25
2023-12-29T09:10:28.606Z,6.88
2023-12-29T09:12:55.662Z,5.57
2023-12-29T09:15:22.643Z,5.43
2023-12-29T09:17:49.633Z,5.35
2023-12-29T09:20:17.553Z,6.68
2023-12-29T09:22:49.755Z,4.35
2023-12-29T09:25:17.068Z,4.07
2023-12-29T09:27:45.075Z,3.70
2023-12-29T09:30:13.011Z,3.13
2023-12-29T09:32:39.921Z,3.17
2023-12-29T09:35:06.832Z,3.00
2023-12-29T09:37:33.664Z,3.15
2023-12-29T09:40:00.452Z,2.47
2023-12-29T09:42:30.299Z,1.58
2023-12-29T09:44:57.158Z,1.33
2023-12-29T09:47:25.275Z,2.03
2023-12-29T09:49:56.343Z,2.47
2023-12-29T09:52:24.081Z,2.22
2023-12-29T09:54:54.876Z,1.58
2023-12-29T09:57:22.164Z,1.10
2023-12-29T09:59:53.761Z,1.38
2023-12-29T10:02:23.536Z,1.30
2023-12-29T10:04:51.085Z,1.35
2023-12-29T10:07:27.974Z,0.90
2023-12-29T10:09:57.711Z,1.10
2023-12-29T10:12:26.099Z,1.00
2023-12-29T10:15:13.947Z,1.10
2023-12-29T10:18:08.791Z,1.33
2023-12-29T10:21:00.581Z,1.95
2023-12-29T10:23:39.816Z,1.20
2023-12-29T10:26:08.410Z,1.90
2023-12-29T10:28:35.532Z,3.45
2023-12-29T10:31:02.457Z,1.75
2023-12-29T10:33:33.123Z,3.17
2023-12-29T10:36:04.458Z,3.00
2023-12-29T10:38:31.774Z,1.77
2023-12-29T10:41:14.061Z,1.52
2023-12-29T10:43:44.768Z,1.70
2023-12-29T10:46:12.900Z,2.65
2023-12-29T10:48:40.588Z,2.40
2023-12-29T10:51:07.832Z,1.50
2023-12-29T10:53:39.207Z,1.35
2023-12-29T10:56:23.935Z,1.25
2023-12-29T10:59:04.827Z,0.90
2023-12-29T11:01:36.544Z,1.38
2023-12-29T11:04:08.223Z,1.83
2023-12-29T11:06:48.363Z,1.95
2023-12-29T11:09:28.437Z,1.63
2023-12-29T11:11:57.604Z,1.65
2023-12-29T11:14:25.481Z,1.52
2023-12-29T11:16:55.353Z,2.00
2023-12-29T11:19:23.200Z,1.98
2023-12-29T11:21:55.407Z,1.83
2023-12-29T11:24:28.415Z,2.58
2023-12-29T11:27:04.443Z,2.70
2023-12-29T11:29:31.666Z,3.65
2023-12-29T11:32:01.895Z,4.32
2023-12-29T11:34:42.356Z,2.30
2023-12-29T11:37:34.393Z,1.42
2023-12-29T11:40:20.884Z,2.17
2023-12-29T11:42:53.050Z,2.70
2023-12-29T11:45:36.909Z,2.13
2023-12-29T11:48:05.011Z,1.65
2023-12-29T11:50:41.937Z,2.92
2023-12-29T11:53:12.505Z,1.88
2023-12-29T11:55:40.453Z,0.80
2023-12-29T11:58:30.403Z,1.33
2023-12-29T12:00:59.071Z,1.52
2023-12-29T12:03:28.196Z,2.53
2023-12-29T12:05:59.291Z,1.30
2023-12-29T12:08:38.218Z,1.77
2023-12-29T12:11:29.871Z,1.75
2023-12-29T12:14:00.409Z,1.33
2023-12-29T12:16:46.423Z,1.80
2023-12-29T12:19:14.516Z,1.92
2023-12-29T12:21:42.093Z,1.83
2023-12-29T12:24:09.931Z,1.35
2023-12-29T12:26:36.897Z,1.35
2023-12-29T12:29:05.133Z,1.40
2023-12-29T12:31:32.125Z,1.73
2023-12-29T12:34:01.596Z,1.08
2023-12-29T12:36:28.968Z,1.30
2023-12-29T12:38:58.114Z,1.02
2023-12-29T12:41:26.608Z,1.27
2023-12-29T12:44:14.222Z,1.23
2023-12-29T12:46:50.567Z,1.70
2023-12-29T12:49:18.653Z,1.30
2023-12-29T12:51:46.181Z,2.17
2023-12-29T12:54:14.541Z,2.20
2023-12-29T12:56:45.056Z,2.00
2023-12-29T12:59:12.798Z,1.27
2023-12-29T13:01:40.509Z,0.65
2023-12-29T13:04:09.459Z,1.63
2023-12-29T13:06:42.730Z,2.25
2023-12-29T13:09:14.202Z,2.30
2023-12-29T13:11:41.900Z,3.20
2023-12-29T13:14:09.167Z,3.55
2023-12-29T13:16:37.938Z,2.00
2023-12-29T13:19:26.175Z,2.85
2023-12-29T13:21:56.286Z,1.98
2023-12-29T13:24:24.949Z,2.58
2023-12-29T13:27:08.599Z,2.00
2023-12-29T13:29:37.185Z,2.88
2023-12-29T13:32:10.966Z,2.97
2023-12-29T13:34:42.485Z,1.92
2023-12-29T13:37:54.757Z,3.15
2023-12-29T13:40:35.173Z,1.77
2023-12-29T13:43:07.683Z,1.58
2023-12-29T13:45:36.712Z,2.72
2023-12-29T13:48:04.764Z,1.63
2023-12-29T13:50:31.573Z,2.13
2023-12-29T13:52:58.433Z,2.53
2023-12-29T13:55:26.326Z,3.20
2023-12-29T13:57:54.556Z,1.90
2023-12-29T14:00:25.458Z,2.50
2023-12-29T14:02:57.891Z,2.00
2023-12-29T14:05:48.865Z,4.55
2023-12-29T14:08:24.257Z,1.70
2023-12-29T14:10:51.352Z,5.00
2023-12-29T14:13:19.247Z,2.85
2023-12-29T14:15:54.641Z,2.22
2023-12-29T14:18:43.881Z,1.75
2023-12-29T14:21:32.796Z,1.58
2023-12-29T14:24:17.052Z,1.80
2023-12-29T14:26:53.186Z,1.95
2023-12-29T14:29:22.192Z,1.88
2023-12-29T14:31:51.946Z,3.13
2023-12-29T14:34:24.037Z,2.97
2023-12-29T14:36:51.063Z,2.80
2023-12-29T14:39:18.180Z,2.83
2023-12-29T14:41:50.106Z,1.25
2023-12-29T14:44:17.872Z,3.00
2023-12-29T14:46:47.623Z,1.38
2023-12-29T14:49:18.785Z,1.70
2023-12-29T14:51:49.375Z,1.95
2023-12-29T14:54:21.157Z,1.95
2023-12-29T14:56:48.116Z,4.18
2023-12-29T14:59:18.391Z,4.35
2023-12-29T15:01:45.412Z,3.60
2023-12-29T15:04:19.264Z,3.60
2023-12-29T15:06:47.122Z,4.15
2023-12-29T15:09:15.464Z,5.30
2023-12-29T15:11:44.116Z,2.60
2023-12-29T15:14:14.192Z,3.90
2023-12-29T15:16:45.927Z,1.63
2023-12-29T15:19:14.899Z,1.70
2023-12-29T15:21:49.831Z,1.92
2023-12-29T15:24:16.854Z,1.85
2023-12-29T15:26:47.935Z,2.63
2023-12-29T15:29:16.263Z,4.05
2023-12-29T15:31:50.377Z,5.15
2023-12-29T15:34:18.310Z,4.00
2023-12-29T15:36:45.201Z,4.40
2023-12-29T15:39:13.584Z,6.40
2023-12-29T15:41:49.874Z,8.25
2023-12-29T15:44:21.788Z,5.80
2023-12-29T15:46:50.826Z,5.95
2023-12-29T15:49:17.681Z,3.78
2023-12-29T15:51:49.417Z,3.85
2023-12-29T15:54:16.217Z,3.67
2023-12-29T15:56:45.469Z,4.15
2023-12-29T15:59:12.657Z,4.95
2023-12-29T16:01:44.587Z,3.60
2023-12-29T16:04:15.827Z,7.80
2023-12-29T16:06:46.965Z,2.03
2023-12-29T16:09:13.806Z,5.13
2023-12-29T16:11:43.811Z,4.50
2023-12-29T16:14:11.749Z,7.97
2023-12-29T16:16:47.270Z,5.50
2023-12-29T16:19:18.042Z,5.25
2023-12-29T16:21:45.352Z,6.55
2023-12-29T16:24:16.800Z,2.78
2023-12-29T16:26:47.652Z,4.43
2023-12-29T16:29:17.180Z,3.47
2023-12-29T16:31:48.609Z,2.00
2023-12-29T16:34:19.210Z,2.70
2023-12-29T16:37:01.363Z,4.38
2023-12-29T16:39:31.334Z,4.05
2023-12-29T16:41:59.496Z,3.50
2023-12-29T16:44:30.023Z,5.03
2023-12-29T16:46:56.931Z,4.00
2023-12-29T16:49:28.317Z,4.18
2023-12-29T16:52:00.098Z,4.07
2023-12-29T16:54:32.334Z,2.92
2023-12-29T16:56:59.275Z,2.28
2023-12-29T16:59:26.975Z,2.95
2023-12-29T17:02:11.386Z,2.95
2023-12-29T17:04:39.776Z,1.73
2023-12-29T17:07:10.889Z,3.08
2023-12-29T17:09:45.766Z,2.05
2023-12-29T17:12:13.522Z,1.65
2023-12-29T17:14:40.969Z,2.97
2023-12-29T17:17:10.747Z,3.25
2023-12-29T17:19:38.860Z,2.83
2023-12-29T17:22:07.095Z,4.07
2023-12-29T17:24:41.535Z,4.38
2023-12-29T17:27:10.110Z,2.72
2023-12-29T17:29:41.644Z,2.50
2023-12-29T17:32:12.531Z,2.97
2023-12-29T17:34:41.752Z,2.33
2023-12-29T17:37:18.027Z,2.25
2023-12-29T17:39:45.748Z,2.28
2023-12-29T17:42:16.515Z,2.28
2023-12-29T17:44:46.172Z,1.67
2023-12-29T17:47:13.995Z,3.78
2023-12-29T17:49:48.321Z,1.67
2023-12-29T17:52:18.984Z,1.38
2023-12-29T17:54:49.498Z,2.45
2023-12-29T17:57:18.643Z,1.77
2023-12-29T17:59:50.560Z,3.13
2023-12-29T18:02:18.045Z,3.05
2023-12-29T18:04:45.514Z,2.75
2023-12-29T18:07:14.201Z,2.40
2023-12-29T18:09:45.672Z,1.60
2023-12-29T18:12:15.817Z,2.78
2023-12-29T18:14:46.627Z,3.25
2023-12-29T18:17:16.182Z,3.20
2023-12-29T18:19:52.036Z,1.90
2023-12-29T18:22:19.612Z,1.85
2023-12-29T18:24:49.817Z,3.97
2023-12-29T18:27:22.710Z,4.47
2023-12-29T18:29:56.496Z,5.25
2023-12-29T18:32:24.191Z,5.28
2023-12-29T18:34:55.665Z,3.58
2023-12-29T18:37:23.522Z,3.90
2023-12-29T18:39:53.165Z,4.80
2023-12-29T18:42:27.518Z,3.88
2023-12-29T18:44:54.932Z,3.42
2023-12-29T18:47:28.307Z,3.78
2023-12-29T18:49:59.259Z,3.08
2023-12-29T18:52:26.186Z,3.33
2023-12-29T18:54:55.381Z,4.63
2023-12-29T18:57:50.435Z,4.35
2023-12-29T19:00:20.524Z,3.95
2023-12-29T19:02:50.441Z,3.63
2023-12-29T19:05:19.278Z,3.97
2023-12-29T19:07:51.241Z,4.45
2023-12-29T19:10:21.586Z,3.10
2023-12-29T19:12:50.865Z,4.32
2023-12-29T19:15:19.840Z,2.58
2023-12-29T19:17:48.163Z,2.53
2023-12-29T19:20:20.479Z,2.33
2023-12-29T19:22:51.097Z,5.38
2023-12-29T19:25:45.166Z,3.65
2023-12-29T19:28:16.274Z,3.35
2023-12-29T19:30:47.757Z,3.90
2023-12-29T19:33:18.473Z,8.52
2023-12-29T19:35:48.395Z,3.05
2023-12-29T19:38:18.841Z,5.43
2023-12-29T19:40:54.169Z,2.15
2023-12-29T19:43:27.409Z,2.95
2023-12-29T19:46:01.454Z,2.13
2023-12-29T19:48:34.016Z,2.80
2023-12-29T19:54:08.306Z,1.55
2023-12-29T19:56:38.739Z,2.03
2023-12-29T19:59:09.788Z,2.90
2023-12-29T20:01:47.246Z,3.50
2023-12-29T20:04:21.741Z,3.25
2023-12-29T20:06:59.000Z,2.80
2023-12-29T20:09:51.923Z,1.92
2023-12-29T20:12:24.129Z,3.00
2023-12-29T20:14:59.737Z,2.25
2023-12-29T20:20:48.999Z,3.80
2023-12-29T20:23:18.195Z,4.45
2023-12-29T20:25:47.911Z,4.53
2023-12-29T20:28:17.234Z,4.47
2023-12-29T20:30:45.421Z,5.05
2023-12-29T20:33:38.519Z,3.83
2023-12-29T20:36:08.684Z,3.05
2023-12-29T20:38:44.022Z,3.80
2023-12-29T20:41:19.821Z,7.32
2023-12-29T20:43:50.543Z,5.63
2023-12-29T20:46:21.563Z,3.83
2023-12-29T20:48:51.312Z,3.50
2023-12-29T20:51:23.688Z,4.75
2023-12-29T20:53:55.177Z,3.45
2023-12-29T20:56:26.199Z,5.82
2023-12-29T20:58:56.963Z,3.25
2023-12-29T21:01:25.761Z,4.10
2023-12-29T21:03:53.084Z,3.33
2023-12-29T21:06:23.005Z,2.90
2023-12-29T21:08:50.305Z,3.47
2023-12-29T21:11:22.002Z,2.92
2023-12-29T21:13:49.724Z,2.55
2023-12-29T21:16:18.171Z,3.72
2023-12-29T21:18:46.237Z,3.65
2023-12-29T21:21:13.746Z,2.65
2023-12-29T21:23:41.058Z,3.75
2023-12-29T21:26:08.449Z,2.55
2023-12-29T21:28:35.252Z,2.03
2023-12-29T21:31:02.348Z,4.68
2023-12-29T21:33:29.388Z,3.10
2023-12-29T21:35:57.631Z,3.47
2023-12-29T21:38:24.470Z,3.13
2023-12-29T21:40:51.201Z,2.47
2023-12-29T21:43:17.968Z,2.88
2023-12-29T21:45:45.470Z,2.78
2023-12-29T21:48:16.703Z,2.40
2023-12-29T21:50:45.571Z,2.40
2023-12-29T21:53:12.277Z,1.65
2023-12-29T21:55:39.643Z,2.13
2023-12-29T21:58:07.877Z,2.88
2023-12-29T22:00:35.221Z,4.05
2023-12-29T22:03:02.721Z,1.77
2023-12-29T22:05:30.013Z,1.70
2023-12-29T22:07:56.763Z,1.40
2023-12-29T22:10:23.763Z,2.97
2023-12-29T22:12:52.690Z,2.88
2023-12-29T22:15:20.043Z,2.13
2023-12-29T22:17:46.818Z,1.80
2023-12-29T22:20:13.943Z,2.67
2023-12-29T22:22:40.823Z,3.25
2023-12-29T22:25:08.072Z,2.20
2023-12-29T22:27:35.137Z,2.13
2023-12-29T22:30:01.912Z,2.88
2023-12-29T22:32:28.741Z,2.60
2023-12-29T22:34:55.678Z,2.33
2023-12-29T22:37:22.634Z,1.75
2023-12-29T22:39:49.409Z,2.35
2023-12-29T22:42:16.164Z,2.95
2023-12-29T22:44:44.721Z,2.42
2023-12-29T22:47:11.786Z,2.53
2023-12-29T22:49:38.640Z,2.50
2023-12-29T22:52:07.599Z,1.40
2023-12-29T22:54:35.045Z,2.40
2023-12-29T22:57:02.225Z,2.05
2023-12-29T22:59:32.831Z,1.63
2023-12-29T23:02:01.529Z,1.40
2023-12-29T23:04:28.959Z,1.27
2023-12-29T23:06:56.618Z,1.10
2023-12-29T23:09:26.050Z,1.52
2023-12-29T23:11:53.037Z,1.10
2023-12-29T23:14:20.564Z,1.77
2023-12-29T23:16:47.312Z,1.60
2023-12-29T23:19:14.547Z,2.35
2023-12-29T23:21:41.532Z,1.65
2023-12-29T23:24:08.346Z,3.65
2023-12-29T23:26:42.042Z,1.58
2023-12-29T23:29:09.010Z,3.08
2023-12-29T23:31:36.542Z,2.13
2023-12-29T23:34:04.501Z,1.50
2023-12-29T23:36:31.395Z,1.23
2023-12-29T23:38:58.130Z,2.22
2023-12-29T23:41:24.908Z,1.75
2023-12-29T23:43:51.709Z,1.35
2023-12-29T23:46:18.682Z,1.65
2023-12-29T23:48:46.162Z,1.73
2023-12-29T23:51:13.161Z,1.50
2023-12-29T23:53:40.294Z,3.20
2023-12-29T23:56:07.444Z,1.73
2023-12-29T23:58:34.859Z,2.45
